Terminal Aerodrome Forecast
Issued by NWS Cleveland, OH

Home | Current Version | Previous Version | Graphics & Text | Print | Product List | Glossary On
Versions: 1 2 3 4 5 6 7 8 9 10 11 12 13 14
782
FTUS41 KCLE 161132
TAFYNG
TAF
KYNG 161132Z 1612/1712 VRB03KT P6SM VCSH SCT010 OVC030
      TEMPO 1612/1615 2SM -SN
     FM161700 25007KT P6SM VCSH BKN015
     FM162000 25007KT P6SM BKN025
     FM171000 23004KT P6SM BKN010=

USA.gov is the U.S. government's official web portal to all federal, state and local government web resources and services.